Beaver Creek, Illinois
Current Conditions -  °F | °C
As of 9:15 PM on Monday 26 Jan 2015 (Local Time) from K3LF Reporting Station
Overcast Overcast  
Wind Chill: 28°   Ceiling: 3200
Heat Index: 32°   Visibility: 10mi
Dew Point: 29°   Wind: 5mph
Humidity: 87%   Direction: 190°S
Pressure: 29.91"   Gusts: NA
Location:  38.895°N, 89.397°W
Report Text: K3LF 270315Z AUTO 19004KT 10SM BKN032 BKN039 OVC065 00/M02 A2991 RMK AO2 T00021017
Loading
Personal Weather Stations






























Interactive Weather Map New forecast layout! Learn more

10-Day Weather Forecast

Advertisements
Track Severe Weather on mobile